Time;durP1;ratioP1;P1;durP2;ratioP2;P2;SDS_P1;SDS_P2;PMS_P1;PMS_P2;Temp;Humidity;BMP_temperature;BMP_pressure;BME280_temperature;BME280_humidity;BME280_pressure;Samples;Min_cycle;Max_cycle;Signal;HPM_P1;HPM_P2
2023/01/16 00:00:49;;;;;;;3.67;3.40;;;5.40;1.00;;;;;;6282738;28;20252;-56
2023/01/16 00:03:52;;;;;;;3.30;3.20;;;5.40;1.00;;;;;;6283835;28;20233;-56
2023/01/16 00:06:55;;;;;;;3.50;3.40;;;5.40;1.00;;;;;;6266006;28;20320;-56
2023/01/16 00:09:58;;;;;;;3.30;3.20;;;5.60;1.00;;;;;;6284300;28;20240;-57
2023/01/16 00:13:03;;;;;;;3.97;3.47;;;5.50;1.00;;;;;;6262797;28;20248;-56
2023/01/16 00:16:07;;;;;;;3.50;3.37;;;5.70;1.00;;;;;;6261968;28;20243;-57
2023/01/16 00:19:10;;;;;;;3.30;3.10;;;5.60;1.00;;;;;;6261433;28;20234;-58
2023/01/16 00:22:13;;;;;;;3.83;3.40;;;5.60;1.00;;;;;;6262289;28;20238;-56
2023/01/16 00:25:16;;;;;;;3.60;3.40;;;5.80;1.00;;;;;;6261752;28;20234;-56
2023/01/16 00:28:21;;;;;;;3.60;3.50;;;6.00;1.00;;;;;;6275211;28;20252;-56
2023/01/16 00:31:24;;;;;;;5.87;3.90;;;5.70;1.00;;;;;;6286694;28;20403;-56
2023/01/16 00:34:27;;;;;;;3.60;3.50;;;5.80;1.00;;;;;;6282606;28;20244;-55
2023/01/16 00:37:30;;;;;;;3.67;3.37;;;5.90;1.00;;;;;;6279728;28;20229;-57
2023/01/16 00:40:34;;;;;;;4.00;3.80;;;5.70;1.00;;;;;;6285243;28;20238;-56
2023/01/16 00:43:38;;;;;;;3.33;3.13;;;5.80;1.00;;;;;;6286484;28;20233;-57
2023/01/16 00:46:41;;;;;;;3.50;3.40;;;5.90;1.00;;;;;;6281080;28;20518;-55
2023/01/16 00:49:44;;;;;;;3.67;3.47;;;5.80;1.00;;;;;;6261276;28;20242;-56
2023/01/16 00:52:47;;;;;;;3.93;3.57;;;5.70;1.00;;;;;;6261775;28;20246;-57
2023/01/16 00:55:52;;;;;;;3.50;3.30;;;5.60;1.00;;;;;;6261690;28;20280;-56
2023/01/16 00:58:56;;;;;;;3.50;3.30;;;5.80;1.00;;;;;;6260736;28;20325;-56
2023/01/16 01:02:17;;;;;;;3.50;3.30;;;5.70;1.00;;;;;;6287316;28;20253;-55
2023/01/16 01:05:25;;;;;;;3.40;3.30;;;5.50;1.00;;;;;;6277661;28;20226;-56
2023/01/16 01:08:28;;;;;;;3.70;3.40;;;5.50;1.00;;;;;;6277749;28;20583;-57
2023/01/16 01:11:31;;;;;;;3.43;3.30;;;5.70;1.00;;;;;;6285610;28;20237;-57
2023/01/16 01:14:35;;;;;;;4.20;3.80;;;5.60;1.00;;;;;;6285182;28;20742;-56
2023/01/16 01:17:39;;;;;;;3.83;3.67;;;5.30;1.00;;;;;;6256108;28;20242;-56
2023/01/16 01:20:42;;;;;;;3.60;3.50;;;5.40;1.00;;;;;;6260141;28;20246;-57
2023/01/16 01:23:45;;;;;;;3.10;3.10;;;5.50;1.00;;;;;;6264027;28;20245;-56
2023/01/16 01:26:48;;;;;;;3.50;3.20;;;5.30;1.00;;;;;;6260619;28;20298;-57
2023/01/16 01:29:53;;;;;;;3.40;3.20;;;5.50;1.00;;;;;;6260247;28;20242;-57
2023/01/16 01:32:56;;;;;;;3.93;3.57;;;5.40;1.00;;;;;;6272578;28;20374;-57
2023/01/16 01:35:59;;;;;;;3.70;3.53;;;5.20;1.00;;;;;;6278221;28;21032;-56
2023/01/16 01:39:02;;;;;;;3.30;3.07;;;5.20;1.00;;;;;;6286104;28;20241;-56
2023/01/16 01:45:29;;;;;;;3.70;3.50;;;5.10;1.00;;;;;;6260617;28;20695;-56
2023/01/16 01:48:40;;;;;;;3.33;3.20;;;4.90;1.00;;;;;;6260097;28;20249;-56
2023/01/16 01:51:44;;;;;;;3.30;3.17;;;5.00;1.00;;;;;;6259933;28;20242;-56
2023/01/16 01:54:52;;;;;;;3.43;3.33;;;4.80;1.00;;;;;;6260567;28;20234;-57
2023/01/16 01:58:00;;;;;;;3.10;3.00;;;4.90;1.00;;;;;;6259672;28;20380;-56
2023/01/16 02:01:07;;;;;;;3.80;3.53;;;4.90;1.00;;;;;;6259665;28;20714;-57
2023/01/16 02:04:14;;;;;;;3.67;3.23;;;4.90;1.00;;;;;;6282909;28;20277;-56
2023/01/16 02:07:20;;;;;;;3.40;3.20;;;4.80;1.00;;;;;;6283077;28;20244;-56
2023/01/16 02:10:30;;;;;;;3.33;3.13;;;5.00;1.00;;;;;;6281033;28;20526;-56
2023/01/16 02:13:33;;;;;;;3.20;3.10;;;5.10;1.00;;;;;;6283684;28;20615;-57
2023/01/16 02:20:14;;;;;;;3.47;3.37;;;4.80;1.00;;;;;;6258815;28;20249;-55
2023/01/16 02:23:45;;;;;;;3.37;3.27;;;4.70;1.00;;;;;;6259564;28;20230;-56
2023/01/16 02:27:06;;;;;;;3.50;3.20;;;4.90;1.00;;;;;;6274934;28;20240;-58
2023/01/16 02:30:55;;;;;;;3.57;3.37;;;5.10;1.00;;;;;;6283798;28;20591;-57
2023/01/16 02:34:38;;;;;;;3.43;3.33;;;5.10;1.00;;;;;;6229950;28;20233;-57
2023/01/16 02:37:48;;;;;;;3.60;3.50;;;4.80;1.00;;;;;;6282769;28;20224;-57
2023/01/16 02:41:01;;;;;;;3.37;3.10;;;4.80;1.00;;;;;;6283083;28;20817;-56
2023/01/16 02:44:12;;;;;;;3.60;3.50;;;4.70;1.00;;;;;;6258585;28;20230;-56
2023/01/16 02:47:24;;;;;;;4.67;3.50;;;4.70;1.00;;;;;;6258026;28;20861;-56
2023/01/16 02:50:32;;;;;;;5.10;3.53;;;4.80;1.00;;;;;;6258239;28;20748;-56
2023/01/16 02:53:42;;;;;;;3.77;3.67;;;4.90;1.00;;;;;;6258440;28;20238;-56
2023/01/16 02:56:50;;;;;;;3.63;3.43;;;4.90;1.00;;;;;;6258168;28;20244;-56
2023/01/16 02:59:53;;;;;;;3.40;3.30;;;5.00;1.00;;;;;;6258104;28;20266;-56
2023/01/16 03:02:59;;;;;;;3.60;3.50;;;5.10;1.00;;;;;;6271747;28;20240;-57
2023/01/16 03:06:08;;;;;;;6.30;5.80;;;4.90;1.00;;;;;;6268720;28;20623;-56
2023/01/16 03:09:31;;;;;;;4.97;4.67;;;4.70;1.00;;;;;;6280030;28;20237;-56
2023/01/16 03:12:47;;;;;;;15.57;11.17;;;4.60;1.00;;;;;;6282206;28;20241;-56
2023/01/16 03:16:00;;;;;;;15.37;11.27;;;4.60;1.00;;;;;;6282963;28;20608;-56
2023/01/16 03:19:16;;;;;;;8.40;7.77;;;4.60;1.00;;;;;;6282243;28;20233;-56
2023/01/16 03:22:27;;;;;;;5.47;5.10;;;4.50;1.00;;;;;;6259229;28;20588;-57
2023/01/16 03:25:36;;;;;;;4.20;3.80;;;4.60;1.00;;;;;;6258012;28;20893;-55
2023/01/16 03:28:51;;;;;;;3.60;3.50;;;4.40;1.00;;;;;;6263257;28;20400;-56
2023/01/16 03:32:00;;;;;;;3.60;3.30;;;4.50;1.00;;;;;;6267027;28;20801;-60
2023/01/16 03:35:08;;;;;;;3.53;3.33;;;4.50;1.00;;;;;;6280555;28;20623;-57
2023/01/16 03:38:15;;;;;;;3.50;3.40;;;4.40;1.00;;;;;;6286361;28;20237;-57
2023/01/16 03:41:23;;;;;;;3.17;3.07;;;4.50;1.00;;;;;;6286604;28;20327;-55
2023/01/16 03:44:30;;;;;;;3.63;3.53;;;4.40;1.00;;;;;;6287427;28;20777;-55
2023/01/16 03:47:40;;;;;;;3.77;3.67;;;4.10;1.00;;;;;;6288065;28;20230;-57
2023/01/16 03:50:52;;;;;;;4.23;3.30;;;4.30;1.00;;;;;;6262341;28;20246;-56
2023/01/16 03:54:02;;;;;;;4.00;3.80;;;4.40;1.00;;;;;;6262982;28;20233;-56
2023/01/16 03:57:09;;;;;;;3.20;3.20;;;4.20;1.00;;;;;;6262235;28;20604;-56
2023/01/16 04:00:13;;;;;;;3.40;3.30;;;4.60;1.00;;;;;;6262512;28;20242;-57
2023/01/16 04:03:25;;;;;;;3.20;3.20;;;4.30;1.00;;;;;;6279157;28;20310;-57
2023/01/16 04:06:35;;;;;;;3.53;3.30;;;4.20;1.00;;;;;;6286819;28;20251;-57
2023/01/16 04:09:44;;;;;;;3.80;3.60;;;4.60;1.00;;;;;;6286451;28;20233;-55
2023/01/16 04:12:52;;;;;;;4.03;3.57;;;4.40;1.00;;;;;;6263688;28;20271;-55
2023/01/16 04:15:59;;;;;;;4.30;3.50;;;4.30;1.00;;;;;;6262480;28;20234;-56
2023/01/16 04:19:04;;;;;;;3.73;3.53;;;4.20;1.00;;;;;;6262522;28;20242;-56
2023/01/16 04:22:19;;;;;;;4.03;3.70;;;4.30;1.00;;;;;;6274005;28;20439;-56
2023/01/16 04:25:22;;;;;;;3.40;3.20;;;4.30;1.00;;;;;;6286488;28;20225;-56
2023/01/16 04:28:25;;;;;;;3.93;3.60;;;4.20;1.00;;;;;;6286750;28;20726;-57
2023/01/16 04:31:28;;;;;;;3.70;3.53;;;4.30;1.00;;;;;;6271166;28;20341;-57
2023/01/16 04:34:31;;;;;;;4.97;3.77;;;4.10;1.00;;;;;;6269354;28;20240;-57
2023/01/16 04:37:36;;;;;;;3.33;3.33;;;4.00;1.00;;;;;;6275834;28;20225;-57
2023/01/16 04:40:39;;;;;;;4.13;3.90;;;4.00;1.00;;;;;;6277792;28;20229;-57
2023/01/16 04:43:42;;;;;;;4.50;4.40;;;4.00;1.00;;;;;;6287128;28;20229;-56
2023/01/16 04:46:46;;;;;;;4.33;4.13;;;4.10;1.00;;;;;;6274485;28;20312;-58
2023/01/16 04:49:48;;;;;;;3.70;3.60;;;3.90;1.00;;;;;;6286807;28;20240;-57
2023/01/16 04:52:53;;;;;;;3.93;3.80;;;3.90;1.00;;;;;;6290743;28;20684;-56
2023/01/16 04:55:56;;;;;;;4.73;4.43;;;3.90;1.00;;;;;;6286657;28;20623;-56
2023/01/16 04:58:59;;;;;;;4.00;3.73;;;4.10;1.00;;;;;;6280240;28;20625;-55
2023/01/16 05:02:02;;;;;;;4.47;4.27;;;4.10;1.00;;;;;;6289481;28;20398;-57
2023/01/16 05:05:06;;;;;;;4.40;3.97;;;4.00;1.00;;;;;;6280174;28;20241;-57
2023/01/16 05:08:16;;;;;;;3.53;3.37;;;4.00;1.00;;;;;;6270688;28;20234;-57
2023/01/16 05:11:19;;;;;;;3.80;3.50;;;3.80;1.00;;;;;;6286582;28;20226;-57
2023/01/16 05:14:23;;;;;;;4.17;4.07;;;3.80;1.00;;;;;;6291814;28;20232;-56
2023/01/16 05:17:26;;;;;;;4.00;3.90;;;3.90;1.00;;;;;;6290184;28;20232;-56
2023/01/16 05:20:29;;;;;;;3.67;3.57;;;3.70;1.00;;;;;;6291509;28;20244;-56
2023/01/16 05:23:34;;;;;;;4.27;3.83;;;3.80;1.00;;;;;;6285768;28;20233;-56
2023/01/16 05:26:38;;;;;;;4.10;4.00;;;4.10;1.00;;;;;;6283772;28;20709;-57
2023/01/16 05:29:41;;;;;;;4.00;3.80;;;3.90;1.00;;;;;;6287332;28;20391;-56
2023/01/16 05:32:44;;;;;;;3.60;3.40;;;4.10;1.00;;;;;;6288045;28;20337;-56
2023/01/16 05:35:48;;;;;;;3.93;3.73;;;4.00;1.00;;;;;;6277336;28;20344;-57
2023/01/16 05:38:54;;;;;;;3.93;3.63;;;3.90;1.00;;;;;;6284996;28;20618;-56
2023/01/16 05:41:57;;;;;;;4.40;4.00;;;4.00;1.00;;;;;;6284562;28;20276;-55
2023/01/16 05:45:00;;;;;;;3.93;3.73;;;4.10;1.00;;;;;;6291089;28;20245;-56
2023/01/16 05:48:03;;;;;;;6.83;4.03;;;4.10;1.00;;;;;;6285557;28;20810;-55
2023/01/16 05:51:07;;;;;;;3.90;3.80;;;4.10;1.00;;;;;;6286646;28;20705;-56
2023/01/16 05:54:13;;;;;;;4.50;4.00;;;4.10;1.00;;;;;;6286157;28;20233;-56
2023/01/16 05:57:16;;;;;;;8.03;4.80;;;4.00;1.00;;;;;;6281770;28;20249;-55
2023/01/16 06:00:20;;;;;;;4.17;3.97;;;4.10;1.00;;;;;;6280076;28;20276;-56
2023/01/16 06:03:25;;;;;;;4.00;3.80;;;4.10;1.00;;;;;;6284267;28;21016;-56
2023/01/16 06:06:27;;;;;;;5.20;3.90;;;4.10;1.00;;;;;;6287340;28;20727;-57
2023/01/16 06:09:32;;;;;;;3.80;3.70;;;4.10;1.00;;;;;;6280998;28;20702;-56
2023/01/16 06:12:35;;;;;;;4.07;3.87;;;4.10;1.00;;;;;;6280746;28;20236;-56
2023/01/16 06:15:38;;;;;;;7.40;4.07;;;4.00;1.00;;;;;;6287793;28;20617;-55
2023/01/16 06:18:41;;;;;;;4.60;4.30;;;4.00;1.00;;;;;;6281555;28;20658;-55
2023/01/16 06:21:44;;;;;;;4.27;3.97;;;4.00;1.00;;;;;;6291860;28;20233;-56
2023/01/16 06:24:49;;;;;;;4.30;4.10;;;4.00;1.00;;;;;;6282308;28;20240;-55
2023/01/16 06:27:52;;;;;;;4.60;4.33;;;4.20;1.00;;;;;;6280630;28;20440;-55
2023/01/16 06:30:57;;;;;;;4.67;4.10;;;4.20;1.00;;;;;;6282544;28;20252;-56
2023/01/16 06:34:00;;;;;;;4.40;4.10;;;4.20;1.00;;;;;;6277490;28;20226;-57
2023/01/16 06:37:03;;;;;;;4.67;4.20;;;4.20;1.00;;;;;;6280372;28;20233;-56
2023/01/16 06:40:09;;;;;;;3.93;3.70;;;4.00;1.00;;;;;;6287441;28;20245;-55
2023/01/16 06:43:15;;;;;;;4.90;4.50;;;4.20;1.00;;;;;;6280965;28;20730;-56
2023/01/16 06:46:18;;;;;;;4.87;4.57;;;4.30;1.00;;;;;;6284230;28;20229;-56
2023/01/16 06:49:21;;;;;;;4.47;4.07;;;4.10;1.00;;;;;;6278582;28;20260;-57
2023/01/16 06:52:24;;;;;;;4.83;4.43;;;4.30;1.00;;;;;;6278969;28;20237;-57
2023/01/16 06:55:29;;;;;;;4.33;4.10;;;4.10;1.00;;;;;;6277278;28;20253;-57
2023/01/16 06:58:32;;;;;;;4.73;4.37;;;4.20;1.00;;;;;;6287826;28;20255;-56
2023/01/16 07:01:35;;;;;;;5.30;4.97;;;4.10;1.00;;;;;;6286085;28;20471;-56
2023/01/16 07:04:38;;;;;;;4.57;4.17;;;4.20;1.00;;;;;;6278809;28;20237;-56
2023/01/16 07:07:41;;;;;;;5.27;4.93;;;3.90;1.00;;;;;;6283895;28;20252;-56
2023/01/16 07:10:46;;;;;;;4.57;4.23;;;4.20;1.00;;;;;;6283401;28;20246;-57
2023/01/16 07:13:49;;;;;;;5.43;3.70;;;4.30;1.00;;;;;;6286455;28;20625;-56
2023/01/16 07:23:35;;;;;;;4.07;3.77;;;4.40;1.00;;;;;;6282314;28;20217;-56
2023/01/16 07:26:43;;;;;;;4.60;4.40;;;4.30;1.00;;;;;;6278434;28;20229;-56
2023/01/16 07:29:46;;;;;;;4.30;4.20;;;4.10;1.00;;;;;;6281368;28;20420;-56
2023/01/16 07:32:50;;;;;;;4.20;4.03;;;4.20;1.00;;;;;;6284071;28;20626;-56
2023/01/16 07:35:53;;;;;;;4.87;4.50;;;4.30;1.00;;;;;;6277142;28;20237;-56
2023/01/16 07:38:56;;;;;;;4.60;4.30;;;4.10;1.00;;;;;;6280570;28;20237;-56
2023/01/16 07:42:04;;;;;;;4.80;4.60;;;4.30;1.00;;;;;;6281577;28;20525;-55
2023/01/16 07:45:08;;;;;;;5.20;4.37;;;4.10;1.00;;;;;;6276866;28;20233;-57
2023/01/16 07:48:12;;;;;;;4.80;4.50;;;4.10;1.00;;;;;;6280030;28;20670;-56
2023/01/16 07:51:15;;;;;;;5.07;4.77;;;4.30;1.00;;;;;;6280999;28;20789;-56
2023/01/16 07:54:18;;;;;;;5.13;4.93;;;4.00;1.00;;;;;;6282232;28;20245;-56
2023/01/16 07:57:24;;;;;;;5.40;5.10;;;4.20;1.00;;;;;;6279665;28;20538;-56
2023/01/16 08:00:27;;;;;;;4.50;4.20;;;4.10;1.00;;;;;;6275575;28;20237;-56
2023/01/16 08:03:30;;;;;;;4.60;4.37;;;4.10;1.00;;;;;;6284075;28;20229;-56
2023/01/16 08:06:34;;;;;;;4.57;4.33;;;4.20;1.00;;;;;;6278773;28;20620;-55
2023/01/16 08:09:37;;;;;;;5.73;4.63;;;4.40;1.00;;;;;;6279031;28;20640;-56
2023/01/16 08:12:41;;;;;;;5.00;4.70;;;4.10;1.00;;;;;;6290582;28;20832;-56
2023/01/16 08:15:44;;;;;;;4.93;4.70;;;4.30;1.00;;;;;;6286789;28;20749;-55
2023/01/16 08:18:48;;;;;;;6.23;4.43;;;4.40;1.00;;;;;;6284700;28;20240;-57
2023/01/16 08:21:51;;;;;;;4.87;4.33;;;4.10;1.00;;;;;;6284907;28;20487;-56
2023/01/16 08:24:54;;;;;;;6.77;4.60;;;4.20;1.00;;;;;;6285794;28;20612;-56
2023/01/16 08:28:01;;;;;;;4.97;4.57;;;4.40;1.00;;;;;;6285850;28;20324;-56
2023/01/16 08:31:07;;;;;;;7.07;4.17;;;4.40;1.00;;;;;;6282917;28;20241;-57
2023/01/16 08:34:10;;;;;;;5.67;4.80;;;4.60;1.00;;;;;;6282883;28;20229;-56
2023/01/16 08:37:14;;;;;;;4.87;4.47;;;4.40;1.00;;;;;;6286663;28;20490;-56
2023/01/16 08:40:18;;;;;;;4.77;4.33;;;4.40;1.00;;;;;;6281544;28;20241;-56
2023/01/16 08:53:22;;;;;;;4.70;4.40;;;4.60;1.00;;;;;;6279470;28;20754;-56
2023/01/16 08:56:25;;;;;;;5.17;4.73;;;4.90;1.00;;;;;;6287613;28;20588;-56
2023/01/16 08:59:33;;;;;;;4.87;4.40;;;4.90;1.00;;;;;;6288589;28;20240;-57
2023/01/16 09:02:38;;;;;;;4.10;3.93;;;4.90;1.00;;;;;;6290561;28;20428;-55
2023/01/16 09:05:41;;;;;;;4.50;4.23;;;5.30;1.00;;;;;;6277584;28;20728;-56
2023/01/16 09:08:44;;;;;;;6.40;4.77;;;5.20;1.00;;;;;;6290834;28;20615;-56
2023/01/16 09:15:09;;;;;;;6.20;4.10;;;5.20;1.00;;;;;;6289967;28;20252;-56
2023/01/16 09:18:12;;;;;;;4.27;3.90;;;5.40;1.00;;;;;;6290079;28;20438;-56
2023/01/16 09:21:18;;;;;;;4.50;4.20;;;5.30;1.00;;;;;;6283444;28;20537;-56
2023/01/16 09:24:21;;;;;;;4.30;4.07;;;5.80;1.00;;;;;;6289110;28;20664;-56
2023/01/16 09:27:24;;;;;;;5.13;4.63;;;5.60;1.00;;;;;;6292094;28;20705;-56
2023/01/16 09:30:29;;;;;;;4.20;3.90;;;5.30;1.00;;;;;;6284406;28;20951;-57
2023/01/16 09:33:32;;;;;;;5.00;4.20;;;5.60;1.00;;;;;;6287353;28;20238;-57
2023/01/16 09:36:35;;;;;;;4.33;4.07;;;5.60;1.00;;;;;;6281688;28;20263;-55
2023/01/16 09:39:38;;;;;;;4.73;3.97;;;5.70;1.00;;;;;;6281122;28;20752;-57
2023/01/16 09:46:17;;;;;;;4.40;4.00;;;5.70;1.00;;;;;;6290147;28;20228;-56
2023/01/16 09:49:24;;;;;;;4.93;4.50;;;5.70;1.00;;;;;;6287157;28;20611;-56
2023/01/16 09:59:23;;;;;;;4.60;4.20;;;6.10;1.00;;;;;;6284094;28;20517;-56
2023/01/16 10:02:30;;;;;;;5.23;4.80;;;6.00;1.00;;;;;;6282559;28;20225;-55
2023/01/16 10:05:41;;;;;;;5.17;4.70;;;5.90;1.00;;;;;;6278354;28;20237;-56
2023/01/16 10:09:03;;;;;;;4.40;4.30;;;6.10;1.00;;;;;;6275921;28;20233;-56
2023/01/16 10:12:10;;;;;;;7.07;4.60;;;6.20;1.00;;;;;;6283637;28;20246;-56
2023/01/16 10:15:21;;;;;;;5.00;4.70;;;6.50;1.00;;;;;;6276239;28;20233;-56
2023/01/16 10:18:36;;;;;;;5.40;4.97;;;6.60;1.00;;;;;;6286340;28;20725;-56
2023/01/16 10:22:09;;;;;;;5.93;4.93;;;6.80;1.00;;;;;;6285437;28;20226;-56
2023/01/16 10:25:22;;;;;;;4.77;4.47;;;6.50;1.00;;;;;;6284350;28;20313;-56
2023/01/16 10:28:37;;;;;;;4.13;3.77;;;6.70;1.00;;;;;;6280804;28;20819;-56
2023/01/16 10:31:43;;;;;;;3.70;3.60;;;6.70;1.00;;;;;;6284088;28;20241;-56
2023/01/16 10:34:55;;;;;;;6.23;3.87;;;7.10;1.00;;;;;;6276048;28;20237;-56
2023/01/16 10:38:07;;;;;;;3.57;3.37;;;6.70;1.00;;;;;;6280821;28;20229;-56
2023/01/16 10:51:18;;;;;;;3.83;3.60;;;6.90;1.00;;;;;;6285220;28;20597;-56
2023/01/16 10:54:22;;;;;;;3.80;3.50;;;7.40;1.00;;;;;;6282775;28;20240;-56
2023/01/16 10:57:25;;;;;;;3.33;3.33;;;7.30;1.00;;;;;;6278588;28;20238;-56
2023/01/16 11:00:35;;;;;;;4.00;3.80;;;7.30;1.00;;;;;;6280838;28;20237;-56
2023/01/16 11:03:41;;;;;;;3.20;3.20;;;7.30;1.00;;;;;;6291909;28;20241;-55
2023/01/16 11:06:46;;;;;;;3.60;3.40;;;7.60;1.00;;;;;;6283658;28;20241;-55
2023/01/16 11:09:49;;;;;;;3.33;3.23;;;7.40;1.00;;;;;;6282236;28;20245;-56
2023/01/16 11:19:44;;;;;;;4.00;3.50;;;7.70;1.00;;;;;;6285259;28;20257;-57
2023/01/16 11:22:58;;;;;;;3.80;3.53;;;8.10;1.00;;;;;;6288226;28;20823;-57
2023/01/16 11:26:01;;;;;;;3.37;3.27;;;7.80;1.00;;;;;;6281308;28;20233;-56
2023/01/16 11:29:04;;;;;;;5.10;4.70;;;7.90;1.00;;;;;;6281950;28;20243;-57
2023/01/16 11:32:11;;;;;;;4.10;3.43;;;8.00;1.00;;;;;;6283146;28;20815;-56
2023/01/16 11:35:16;;;;;;;3.53;3.40;;;8.20;1.00;;;;;;6263739;28;20236;-56
2023/01/16 11:38:21;;;;;;;5.30;4.27;;;8.30;1.00;;;;;;6286353;28;20275;-56
2023/01/16 11:41:29;;;;;;;3.53;3.43;;;8.20;1.00;;;;;;6276319;28;20292;-56
2023/01/16 11:47:55;;;;;;;3.23;3.03;;;8.20;1.00;;;;;;6285244;28;20321;-55
2023/01/16 11:50:59;;;;;;;3.27;2.97;;;8.20;1.00;;;;;;6285342;28;20284;-56
2023/01/16 11:54:12;;;;;;;3.43;3.23;;;8.10;1.00;;;;;;6286198;28;20239;-57
2023/01/16 11:57:37;;;;;;;4.10;3.70;;;8.10;1.00;;;;;;6286605;28;20230;-57
2023/01/16 12:00:49;;;;;;;3.70;3.50;;;8.20;1.00;;;;;;6283253;28;20647;-56
2023/01/16 12:04:08;;;;;;;3.90;3.70;;;8.20;1.00;;;;;;6290829;28;20618;-57
2023/01/16 12:07:20;;;;;;;3.43;3.33;;;8.40;1.00;;;;;;6282525;28;20230;-56
2023/01/16 12:10:34;;;;;;;3.97;3.77;;;8.20;1.00;;;;;;6288388;28;20232;-58
2023/01/16 12:17:22;;;;;;;3.80;3.53;;;8.20;1.00;;;;;;6245022;28;20241;-56
2023/01/16 12:20:36;;;;;;;6.43;3.80;;;8.10;1.00;;;;;;6292697;28;20361;-56
2023/01/16 12:24:22;;;;;;;4.03;3.93;;;8.10;1.00;;;;;;6285702;28;20590;-56
2023/01/16 12:27:38;;;;;;;3.70;3.40;;;8.00;1.00;;;;;;6284662;28;20244;-55
2023/01/16 12:31:10;;;;;;;3.67;3.37;;;8.10;1.00;;;;;;6285506;28;20244;-56
2023/01/16 12:34:47;;;;;;;3.63;3.50;;;8.20;1.00;;;;;;6274080;28;20277;-55
2023/01/16 12:38:16;;;;;;;5.53;5.13;;;8.40;1.00;;;;;;6285114;28;20233;-57
2023/01/16 12:45:11;;;;;;;4.23;4.03;;;8.40;1.00;;;;;;6181265;28;20247;-56
2023/01/16 12:48:44;;;;;;;3.67;3.40;;;8.40;1.00;;;;;;6180562;28;20545;-56
2023/01/16 12:52:04;;;;;;;4.17;3.97;;;8.50;1.00;;;;;;6272676;28;20234;-56
2023/01/16 12:55:18;;;;;;;4.33;4.07;;;8.30;1.00;;;;;;6278188;28;20248;-57
2023/01/16 12:58:25;;;;;;;3.87;3.53;;;8.40;1.00;;;;;;6284410;28;20229;-57
2023/01/16 13:01:35;;;;;;;3.87;3.57;;;8.30;1.00;;;;;;6290962;28;20236;-56
2023/01/16 13:04:42;;;;;;;3.83;3.63;;;8.20;1.00;;;;;;6287017;28;20781;-56
2023/01/16 13:07:51;;;;;;;5.03;4.80;;;8.10;1.00;;;;;;6283651;28;20244;-56
2023/01/16 13:14:24;;;;;;;5.57;4.37;;;8.10;1.00;;;;;;6287031;28;20240;-55
2023/01/16 13:17:41;;;;;;;4.13;4.03;;;8.10;1.00;;;;;;6289230;28;20361;-56
2023/01/16 13:20:46;;;;;;;4.67;3.40;;;8.10;1.00;;;;;;6289848;28;20603;-56
2023/01/16 13:23:54;;;;;;;4.50;4.23;;;8.00;1.00;;;;;;6286349;28;20240;-56
2023/01/16 13:27:02;;;;;;;3.67;3.30;;;7.90;1.00;;;;;;6288089;28;20244;-56
2023/01/16 13:30:11;;;;;;;3.47;3.37;;;8.00;1.00;;;;;;6289709;28;20722;-56
2023/01/16 13:33:20;;;;;;;4.00;3.80;;;8.00;1.00;;;;;;6285044;28;20610;-55
2023/01/16 13:37:09;;;;;;;4.40;4.10;;;7.80;1.00;;;;;;6277762;28;20225;-56
2023/01/16 13:40:43;;;;;;;3.33;3.23;;;8.00;1.00;;;;;;6274901;28;20250;-56
2023/01/16 13:47:16;;;;;;;3.90;3.57;;;7.70;1.00;;;;;;6278074;28;20229;-56
2023/01/16 13:50:25;;;;;;;3.63;3.43;;;7.70;1.00;;;;;;6284704;28;20228;-56
2023/01/16 13:53:32;;;;;;;3.70;3.40;;;7.50;1.00;;;;;;6282786;28;20233;-57
2023/01/16 13:56:35;;;;;;;3.93;3.73;;;7.60;1.00;;;;;;6286805;28;20228;-56
2023/01/16 13:59:45;;;;;;;3.67;3.40;;;7.60;1.00;;;;;;6286454;28;20242;-56
2023/01/16 14:03:03;;;;;;;3.87;3.57;;;7.70;1.00;;;;;;6284853;28;20298;-57
2023/01/16 14:06:27;;;;;;;3.90;3.60;;;7.60;1.00;;;;;;6286720;28;20255;-56
2023/01/16 14:09:29;;;;;;;4.00;3.90;;;7.50;1.00;;;;;;6283465;28;20225;-56
2023/01/16 14:12:41;;;;;;;3.77;3.20;;;7.50;1.00;;;;;;6281045;28;20225;-56
2023/01/16 14:19:23;;;;;;;5.03;4.20;;;7.40;1.00;;;;;;6283426;28;20254;-56
2023/01/16 14:25:57;;;;;;;3.90;3.57;;;7.40;1.00;;;;;;6281262;28;20729;-56
2023/01/16 14:29:02;;;;;;;3.83;3.50;;;7.30;1.00;;;;;;6282124;28;20253;-56
2023/01/16 14:32:17;;;;;;;3.80;3.70;;;7.20;1.00;;;;;;6282774;28;20372;-57
2023/01/16 14:35:23;;;;;;;3.70;3.50;;;7.20;1.00;;;;;;6278335;28;20236;-56
2023/01/16 14:38:33;;;;;;;3.90;3.70;;;7.40;1.00;;;;;;6281408;28;20765;-56
2023/01/16 14:55:45;;;;;;;3.47;3.37;;;7.10;1.00;;;;;;6280833;28;20929;-58
2023/01/16 14:58:55;;;;;;;3.53;3.30;;;7.00;1.00;;;;;;6281470;28;20723;-56
2023/01/16 15:02:20;;;;;;;3.83;3.73;;;7.10;1.00;;;;;;6286632;28;20456;-56
2023/01/16 15:05:49;;;;;;;3.80;3.60;;;6.80;1.00;;;;;;6269197;28;20251;-56
2023/01/16 15:08:52;;;;;;;4.73;4.33;;;6.70;1.00;;;;;;6281783;28;20241;-57
2023/01/16 15:11:59;;;;;;;4.33;4.10;;;7.00;1.00;;;;;;6278710;28;20371;-57
2023/01/16 15:15:02;;;;;;;4.50;4.10;;;6.50;1.00;;;;;;6283075;28;20720;-56
2023/01/16 15:25:00;;;;;;;3.83;3.60;;;6.60;1.00;;;;;;6281162;28;20585;-57
2023/01/16 15:28:13;;;;;;;4.13;3.93;;;6.70;1.00;;;;;;6287778;28;20234;-58
2023/01/16 15:31:19;;;;;;;4.00;3.80;;;6.50;1.00;;;;;;6288643;28;20225;-58
2023/01/16 15:34:25;;;;;;;9.90;7.00;;;6.40;1.00;;;;;;6281700;28;20248;-60
2023/01/16 15:37:28;;;;;;;4.37;4.23;;;6.30;1.00;;;;;;6285736;28;20388;-58
2023/01/16 15:40:31;;;;;;;4.37;4.17;;;6.00;1.00;;;;;;6285958;28;20295;-57
2023/01/16 15:47:28;;;;;;;5.23;4.90;;;6.20;1.00;;;;;;6289984;28;20236;-57
2023/01/16 15:50:41;;;;;;;4.97;4.57;;;6.10;1.00;;;;;;6279317;28;20266;-58
2023/01/16 15:53:52;;;;;;;4.70;4.40;;;6.00;1.00;;;;;;6284983;28;20391;-57
2023/01/16 15:56:55;;;;;;;4.77;4.47;;;6.30;1.00;;;;;;6290498;28;20606;-58
2023/01/16 16:00:00;;;;;;;4.33;4.13;;;6.00;1.00;;;;;;6283281;28;20241;-58
2023/01/16 16:03:13;;;;;;;4.77;4.57;;;6.00;1.00;;;;;;6285265;28;20244;-59
2023/01/16 16:06:20;;;;;;;4.70;4.03;;;6.20;1.00;;;;;;6300697;28;20237;-57
2023/01/16 16:09:26;;;;;;;4.17;3.97;;;6.30;1.00;;;;;;6285114;28;20973;-56
2023/01/16 16:12:30;;;;;;;6.00;4.67;;;6.20;1.00;;;;;;6285808;28;20222;-57
2023/01/16 16:19:29;;;;;;;4.27;4.00;;;5.90;1.00;;;;;;6183792;28;20247;-57
2023/01/16 16:22:50;;;;;;;5.27;4.47;;;5.80;1.00;;;;;;6203502;28;20560;-57
2023/01/16 16:25:56;;;;;;;4.87;4.43;;;5.90;1.00;;;;;;6284948;28;20302;-57
2023/01/16 16:28:59;;;;;;;5.00;4.60;;;5.80;1.00;;;;;;6283501;28;20502;-56
2023/01/16 16:32:08;;;;;;;4.93;4.67;;;5.90;1.00;;;;;;6294185;28;20237;-57
2023/01/16 16:35:19;;;;;;;5.10;4.70;;;5.70;1.00;;;;;;6266570;28;20226;-57
2023/01/16 16:38:25;;;;;;;5.20;4.80;;;5.60;1.00;;;;;;6285524;28;20261;-56
2023/01/16 16:45:14;;;;;;;4.77;4.37;;;5.70;1.00;;;;;;6277237;28;20390;-57
2023/01/16 16:48:27;;;;;;;4.70;4.37;;;5.80;1.00;;;;;;6280504;28;20253;-58
2023/01/16 16:51:31;;;;;;;6.47;4.63;;;5.70;1.00;;;;;;6279347;28;20457;-58
2023/01/16 16:54:34;;;;;;;5.53;5.03;;;5.40;1.00;;;;;;6287998;28;20634;-57
2023/01/16 16:57:43;;;;;;;5.20;4.90;;;5.70;1.00;;;;;;6267103;28;20551;-56
2023/01/16 17:00:47;;;;;;;4.73;4.30;;;5.60;1.00;;;;;;6282501;28;20233;-59
2023/01/16 17:03:55;;;;;;;4.77;4.30;;;5.40;1.00;;;;;;6267102;28;20236;-58
2023/01/16 17:06:59;;;;;;;4.43;4.23;;;5.50;1.00;;;;;;6282029;28;20271;-57
2023/01/16 17:10:02;;;;;;;4.77;4.47;;;5.50;1.00;;;;;;6287787;28;20761;-57
2023/01/16 17:13:05;;;;;;;5.03;4.70;;;5.30;1.00;;;;;;6289174;28;20307;-57
2023/01/16 17:16:17;;;;;;;4.53;4.23;;;5.30;1.00;;;;;;6283831;28;20245;-58
2023/01/16 17:19:27;;;;;;;4.83;4.53;;;5.30;1.00;;;;;;6286744;28;20607;-57
2023/01/16 17:22:30;;;;;;;5.27;4.87;;;5.50;1.00;;;;;;6282636;28;20225;-57
2023/01/16 17:25:33;;;;;;;5.60;5.30;;;5.60;1.00;;;;;;6288246;28;20229;-57
2023/01/16 17:28:36;;;;;;;5.37;4.83;;;5.30;1.00;;;;;;6282763;28;20230;-57
2023/01/16 17:31:41;;;;;;;5.13;4.70;;;5.30;1.00;;;;;;6283320;28;20618;-57
2023/01/16 17:34:45;;;;;;;7.13;5.33;;;5.40;1.00;;;;;;6288362;28;20244;-57
2023/01/16 17:37:48;;;;;;;5.23;5.03;;;5.60;1.00;;;;;;6280126;28;20241;-57
2023/01/16 17:40:52;;;;;;;4.63;4.43;;;5.10;1.00;;;;;;6285565;28;20240;-58
2023/01/16 17:47:31;;;;;;;6.10;4.80;;;5.10;1.00;;;;;;6241309;28;20684;-58
2023/01/16 17:50:36;;;;;;;5.00;4.80;;;5.30;1.00;;;;;;6237250;28;20329;-57
2023/01/16 17:53:41;;;;;;;5.63;5.27;;;5.10;1.00;;;;;;6276217;28;20600;-57
2023/01/16 17:56:44;;;;;;;4.93;4.73;;;5.10;1.00;;;;;;6282310;28;20726;-57
2023/01/16 17:59:47;;;;;;;5.17;4.87;;;5.20;1.00;;;;;;6267553;28;20402;-59
2023/01/16 18:02:50;;;;;;;5.77;5.20;;;5.10;1.00;;;;;;6266897;28;20601;-57
2023/01/16 18:05:59;;;;;;;5.23;4.93;;;5.30;1.00;;;;;;6291639;28;20236;-57
2023/01/16 18:09:06;;;;;;;5.13;4.83;;;5.50;1.00;;;;;;6278674;28;20759;-58
2023/01/16 18:18:50;;;;;;;7.10;4.80;;;5.30;1.00;;;;;;6279891;28;20325;-56
2023/01/16 18:22:01;;;;;;;5.50;5.00;;;5.40;1.00;;;;;;6282960;28;20288;-56
2023/01/16 18:25:06;;;;;;;4.70;4.57;;;5.50;1.00;;;;;;6280894;28;20233;-56
2023/01/16 18:28:09;;;;;;;5.27;4.97;;;5.40;1.00;;;;;;6282184;28;20240;-56
2023/01/16 18:31:12;;;;;;;5.57;5.17;;;5.40;1.00;;;;;;6283045;28;20319;-57
2023/01/16 18:34:15;;;;;;;5.17;4.93;;;5.50;1.00;;;;;;6282495;28;20815;-56
2023/01/16 18:37:20;;;;;;;5.50;5.10;;;5.40;1.00;;;;;;6279185;28;20604;-56
2023/01/16 19:03:53;;;;;;;5.70;5.20;;;5.30;1.00;;;;;;6282804;28;20236;-59
2023/01/16 19:06:59;;;;;;;6.20;5.20;;;5.30;1.00;;;;;;6281420;28;20233;-58